Time;durP1;ratioP1;P1;durP2;ratioP2;P2;SDS_P1;SDS_P2;PMS_P1;PMS_P2;Temp;Humidity;BMP_temperature;BMP_pressure;BME280_temperature;BME280_humidity;BME280_pressure;Samples;Min_cycle;Max_cycle;Signal;HPM_P1;HPM_P2
2024/03/11 00:02:04;;;;;;;11.20;7.57;;;11.50;99.90;;;;;;7283352;19;20555;-77
2024/03/11 00:04:30;;;;;;;12.67;8.23;;;11.50;99.90;;;;;;7283068;19;20270;-77
2024/03/11 00:06:57;;;;;;;14.50;9.30;;;11.50;99.90;;;;;;7283201;19;20206;-77
2024/03/11 00:09:32;;;;;;;16.50;10.20;;;11.60;99.90;;;;;;7282891;19;20203;-77
2024/03/11 00:12:00;;;;;;;18.00;11.03;;;11.70;99.90;;;;;;7283675;19;20195;-78
2024/03/11 00:14:28;;;;;;;18.60;11.03;;;11.80;99.90;;;;;;7283708;19;20192;-76
2024/03/11 00:16:57;;;;;;;20.93;12.63;;;11.80;99.90;;;;;;7283273;19;20667;-77
2024/03/11 00:19:25;;;;;;;21.70;13.13;;;11.90;99.90;;;;;;7283271;19;20219;-76
2024/03/11 00:21:58;;;;;;;21.67;13.77;;;11.90;99.90;;;;;;7283711;19;20332;-77
2024/03/11 00:24:24;;;;;;;24.27;14.63;;;11.70;99.90;;;;;;7281813;19;20735;-77
2024/03/11 00:26:51;;;;;;;23.10;14.23;;;11.70;99.90;;;;;;7283636;19;20187;-77
2024/03/11 00:29:18;;;;;;;26.53;14.80;;;11.80;99.90;;;;;;7286089;19;20270;-77
2024/03/11 00:31:44;;;;;;;25.07;15.77;;;11.80;99.90;;;;;;7305671;19;20735;-77
2024/03/11 00:34:10;;;;;;;26.33;16.37;;;11.80;99.90;;;;;;7283211;19;20199;-76
2024/03/11 00:36:37;;;;;;;27.00;15.67;;;11.80;99.90;;;;;;7282436;19;20187;-77
2024/03/11 00:39:03;;;;;;;26.80;16.27;;;11.80;99.90;;;;;;7283158;19;20198;-76
2024/03/11 00:41:32;;;;;;;26.23;16.63;;;11.90;99.90;;;;;;7282574;19;20185;-77
2024/03/11 00:43:58;;;;;;;27.00;16.57;;;11.90;99.90;;;;;;7281277;19;20227;-77
2024/03/11 00:46:24;;;;;;;28.07;16.67;;;11.80;99.90;;;;;;7282187;19;20199;-78
2024/03/11 00:48:50;;;;;;;28.50;16.80;;;11.80;99.90;;;;;;7279898;19;20198;-76
2024/03/11 00:51:16;;;;;;;26.77;16.53;;;11.80;99.90;;;;;;7301374;19;20187;-75
2024/03/11 00:53:42;;;;;;;28.93;17.73;;;11.70;99.90;;;;;;7298972;19;20650;-77
2024/03/11 00:56:08;;;;;;;28.40;17.17;;;11.80;99.90;;;;;;7280759;19;20193;-77
2024/03/11 00:58:35;;;;;;;28.13;17.10;;;11.80;99.90;;;;;;7280590;19;20186;-77
2024/03/11 01:01:02;;;;;;;28.03;17.27;;;11.80;99.90;;;;;;7280629;19;20226;-76
2024/03/11 01:03:31;;;;;;;31.40;17.57;;;11.80;99.90;;;;;;7280421;19;20198;-77
2024/03/11 01:05:58;;;;;;;27.70;17.50;;;11.90;99.90;;;;;;7281048;19;20214;-76
2024/03/11 01:08:24;;;;;;;26.43;17.10;;;11.90;99.90;;;;;;7279587;19;20182;-77
2024/03/11 01:10:50;;;;;;;29.03;17.53;;;11.90;99.90;;;;;;7281262;19;20196;-76
2024/03/11 01:13:16;;;;;;;27.73;17.37;;;11.90;99.90;;;;;;7293610;19;20195;-76
2024/03/11 01:15:43;;;;;;;28.17;17.57;;;11.90;99.90;;;;;;7300567;19;20191;-77
2024/03/11 01:18:08;;;;;;;28.70;18.17;;;12.00;99.90;;;;;;7280870;19;20264;-76
2024/03/11 01:20:34;;;;;;;28.37;17.60;;;11.90;99.90;;;;;;7279983;19;20189;-76
2024/03/11 01:23:01;;;;;;;24.87;16.93;;;12.00;99.90;;;;;;7280627;19;20198;-77
2024/03/11 01:25:27;;;;;;;27.70;17.37;;;11.90;99.90;;;;;;7280376;19;20224;-77
2024/03/11 01:27:55;;;;;;;26.97;17.37;;;11.80;99.90;;;;;;7281900;19;20193;-77
2024/03/11 01:30:21;;;;;;;25.57;16.77;;;11.90;99.90;;;;;;7288980;19;20680;-78
2024/03/11 01:32:47;;;;;;;24.33;16.07;;;11.90;99.90;;;;;;7293383;19;20190;-76
2024/03/11 01:35:13;;;;;;;25.93;17.20;;;11.90;99.90;;;;;;7310664;19;20653;-77
2024/03/11 01:37:41;;;;;;;24.80;16.33;;;11.80;99.90;;;;;;7288112;19;20212;-76
2024/03/11 01:40:10;;;;;;;24.63;16.27;;;11.80;99.90;;;;;;7286534;19;20192;-77
2024/03/11 01:42:38;;;;;;;25.23;16.70;;;11.80;99.90;;;;;;7287333;19;20203;-77
2024/03/11 01:45:05;;;;;;;23.83;16.37;;;11.80;99.90;;;;;;7285810;19;20195;-77
2024/03/11 01:47:31;;;;;;;23.70;16.30;;;11.90;99.90;;;;;;7288871;19;20661;-77
2024/03/11 01:50:01;;;;;;;24.93;15.93;;;11.80;99.90;;;;;;7287543;19;20203;-77
2024/03/11 01:52:37;;;;;;;22.13;15.07;;;11.80;99.90;;;;;;7288556;19;20191;-77
2024/03/11 01:55:04;;;;;;;24.50;15.70;;;11.70;99.90;;;;;;7288284;19;20194;-77
2024/03/11 01:57:33;;;;;;;21.73;14.80;;;11.60;99.90;;;;;;7286273;19;20194;-77
2024/03/11 01:59:59;;;;;;;22.17;14.30;;;11.60;99.90;;;;;;7287615;19;20195;-77
2024/03/11 02:02:25;;;;;;;20.93;13.97;;;11.40;99.90;;;;;;7286502;19;20185;-76
2024/03/11 02:04:51;;;;;;;22.83;14.43;;;11.30;99.90;;;;;;7287299;19;20220;-76
2024/03/11 02:07:19;;;;;;;22.30;14.77;;;11.30;99.90;;;;;;7292177;19;20182;-76
2024/03/11 02:09:45;;;;;;;21.13;14.93;;;11.30;99.90;;;;;;7310061;19;20274;-77
2024/03/11 02:12:17;;;;;;;23.63;16.33;;;11.30;99.90;;;;;;7287681;19;20701;-76
2024/03/11 02:14:45;;;;;;;26.93;16.77;;;11.30;99.90;;;;;;7288841;19;20190;-76
2024/03/11 02:17:13;;;;;;;25.50;16.13;;;11.20;99.90;;;;;;7286644;19;20656;-77
2024/03/11 02:19:40;;;;;;;25.83;17.57;;;11.20;99.90;;;;;;7287331;19;20201;-76
2024/03/11 02:22:08;;;;;;;26.17;18.20;;;11.20;99.90;;;;;;7287165;19;20228;-77
2024/03/11 02:24:35;;;;;;;25.80;17.27;;;11.30;99.90;;;;;;7286496;19;20230;-76
2024/03/11 02:27:02;;;;;;;26.90;17.23;;;11.30;99.90;;;;;;7286938;19;20220;-76
2024/03/11 02:29:28;;;;;;;22.80;15.27;;;11.30;99.90;;;;;;7285023;19;20202;-76
2024/03/11 02:31:54;;;;;;;22.50;14.77;;;11.10;99.90;;;;;;7286515;19;20197;-77
2024/03/11 02:34:20;;;;;;;23.30;15.57;;;11.10;99.90;;;;;;7288278;19;20213;-76
2024/03/11 02:36:48;;;;;;;24.77;16.40;;;11.00;99.90;;;;;;7300125;19;20194;-76
2024/03/11 02:39:15;;;;;;;25.00;16.20;;;11.00;99.90;;;;;;7307917;19;20653;-76
2024/03/11 02:41:43;;;;;;;25.47;17.13;;;11.00;99.90;;;;;;7287627;19;20565;-76
2024/03/11 02:44:09;;;;;;;25.90;16.87;;;11.00;99.90;;;;;;7285061;19;20273;-77
2024/03/11 02:46:35;;;;;;;29.83;18.27;;;11.00;99.90;;;;;;7285922;19;20201;-77
2024/03/11 02:49:02;;;;;;;32.17;19.47;;;10.90;99.90;;;;;;7286750;19;20194;-77
2024/03/11 02:51:30;;;;;;;32.00;19.47;;;10.90;99.90;;;;;;7285899;19;20189;-76
2024/03/11 02:53:56;;;;;;;31.80;19.27;;;10.90;99.90;;;;;;7285912;19;20898;-76
2024/03/11 02:56:22;;;;;;;33.30;19.93;;;10.90;99.90;;;;;;7285861;19;20192;-77
2024/03/11 02:58:49;;;;;;;34.00;20.50;;;11.00;99.90;;;;;;7286254;19;20195;-76
2024/03/11 03:01:16;;;;;;;35.53;20.33;;;11.00;99.90;;;;;;7308519;19;20193;-77
2024/03/11 03:03:43;;;;;;;39.37;22.23;;;11.10;99.90;;;;;;7286540;19;20181;-77
2024/03/11 03:06:09;;;;;;;40.13;22.83;;;11.00;99.90;;;;;;7286264;19;20548;-77
2024/03/11 03:08:35;;;;;;;41.57;23.70;;;11.00;99.90;;;;;;7285546;19;20193;-77
2024/03/11 03:11:02;;;;;;;42.37;24.43;;;11.00;99.90;;;;;;7282900;19;20197;-76
2024/03/11 03:13:29;;;;;;;44.10;25.47;;;11.00;99.90;;;;;;7286368;19;20203;-76
2024/03/11 03:15:56;;;;;;;46.07;25.97;;;11.10;99.90;;;;;;7284945;19;20194;-76
2024/03/11 03:18:23;;;;;;;43.13;25.37;;;11.10;99.90;;;;;;7285446;19;20661;-77
2024/03/11 03:20:49;;;;;;;44.03;25.03;;;11.00;99.90;;;;;;7283982;19;20186;-77
2024/03/11 03:23:15;;;;;;;46.07;27.00;;;11.00;99.90;;;;;;7307163;19;20215;-76
2024/03/11 03:25:41;;;;;;;49.17;27.00;;;11.00;99.90;;;;;;7282986;19;20189;-76
2024/03/11 03:28:06;;;;;;;47.23;26.97;;;11.00;99.90;;;;;;7283983;19;20642;-76
2024/03/11 03:30:32;;;;;;;43.97;26.33;;;11.00;99.90;;;;;;7283355;19;20198;-77
2024/03/11 03:32:59;;;;;;;51.87;28.70;;;11.00;99.90;;;;;;7286074;19;20193;-77
2024/03/11 03:35:25;;;;;;;48.07;27.47;;;11.00;99.90;;;;;;7284633;19;20194;-76
2024/03/11 03:37:55;;;;;;;48.07;26.90;;;11.10;99.90;;;;;;7284604;19;20259;-76
2024/03/11 03:40:22;;;;;;;50.37;28.30;;;11.10;99.90;;;;;;7284974;19;20254;-76
2024/03/11 03:42:49;;;;;;;48.77;27.10;;;11.00;99.90;;;;;;7283181;19;20218;-76
2024/03/11 03:45:17;;;;;;;47.57;26.83;;;11.10;99.90;;;;;;7306461;19;20194;-76
2024/03/11 03:47:43;;;;;;;47.13;27.20;;;11.10;99.90;;;;;;7285179;19;20261;-77
2024/03/11 03:50:12;;;;;;;48.13;26.93;;;11.00;99.90;;;;;;7282047;19;20228;-76
2024/03/11 03:52:39;;;;;;;46.80;27.57;;;11.00;99.90;;;;;;7284198;19;20199;-76
2024/03/11 03:55:08;;;;;;;45.17;26.80;;;11.00;99.90;;;;;;7284837;19;20651;-77
2024/03/11 03:57:34;;;;;;;46.33;26.83;;;11.00;99.90;;;;;;7282917;19;20260;-77
2024/03/11 04:00:00;;;;;;;43.30;24.67;;;11.00;99.90;;;;;;7283052;19;20604;-77
2024/03/11 04:02:26;;;;;;;41.60;24.83;;;11.00;99.90;;;;;;7284086;19;20181;-76
2024/03/11 04:04:52;;;;;;;42.03;24.07;;;11.00;99.90;;;;;;7282500;19;20277;-76
2024/03/11 04:07:18;;;;;;;45.47;26.17;;;11.00;99.90;;;;;;7283952;19;20687;-76
2024/03/11 04:09:44;;;;;;;46.00;25.20;;;10.90;99.90;;;;;;7305546;19;20277;-76
2024/03/11 04:12:09;;;;;;;43.63;25.00;;;11.00;99.90;;;;;;7282705;19;20679;-77
2024/03/11 04:14:38;;;;;;;44.67;25.33;;;10.90;99.90;;;;;;7284228;19;20185;-76
2024/03/11 04:17:06;;;;;;;42.90;24.67;;;10.90;99.90;;;;;;7282182;19;20648;-76
2024/03/11 04:19:32;;;;;;;44.23;24.80;;;11.00;99.90;;;;;;7282019;19;20556;-76
2024/03/11 04:21:58;;;;;;;41.90;23.03;;;11.10;99.90;;;;;;7283125;19;20195;-77
2024/03/11 04:24:25;;;;;;;39.97;24.03;;;11.00;99.90;;;;;;7282331;19;20210;-77
2024/03/11 04:26:51;;;;;;;37.07;22.77;;;11.00;99.90;;;;;;7281841;19;20199;-76
2024/03/11 04:29:18;;;;;;;40.93;23.53;;;11.00;99.90;;;;;;7292822;19;20197;-76
2024/03/11 04:31:44;;;;;;;41.00;24.13;;;11.10;99.90;;;;;;7304958;19;20201;-76
2024/03/11 04:34:10;;;;;;;45.57;24.47;;;11.10;99.90;;;;;;7282468;19;20189;-77
2024/03/11 04:36:36;;;;;;;41.67;23.27;;;11.10;99.90;;;;;;7281586;19;20223;-77
2024/03/11 04:39:04;;;;;;;40.97;23.77;;;11.10;99.90;;;;;;7282433;19;20301;-76
2024/03/11 04:41:31;;;;;;;39.63;23.23;;;11.00;99.90;;;;;;7281782;19;20693;-75
2024/03/11 04:43:59;;;;;;;42.33;24.63;;;10.90;99.90;;;;;;7281660;19;20203;-76
2024/03/11 04:46:25;;;;;;;41.83;23.70;;;11.00;99.90;;;;;;7282152;19;20181;-76
2024/03/11 04:48:51;;;;;;;43.93;23.53;;;11.00;99.90;;;;;;7282121;19;20195;-76
2024/03/11 04:51:17;;;;;;;40.83;22.93;;;11.00;99.90;;;;;;7297299;19;20178;-76
2024/03/11 04:53:43;;;;;;;42.30;24.40;;;11.00;99.90;;;;;;7296915;19;20544;-76
2024/03/11 04:56:09;;;;;;;40.80;22.57;;;11.00;99.90;;;;;;7281474;19;20656;-77
2024/03/11 04:58:37;;;;;;;42.77;23.37;;;11.10;99.90;;;;;;7281398;19;20218;-76
2024/03/11 05:01:05;;;;;;;44.00;23.20;;;11.10;99.90;;;;;;7281231;19;20197;-76
2024/03/11 05:03:31;;;;;;;44.10;23.70;;;11.00;99.90;;;;;;7277924;19;20664;-76
2024/03/11 05:05:57;;;;;;;41.63;23.03;;;11.10;99.90;;;;;;7282435;19;20187;-76
2024/03/11 05:08:24;;;;;;;42.87;22.67;;;11.10;99.90;;;;;;7282037;19;20194;-76
2024/03/11 05:10:50;;;;;;;40.93;22.93;;;11.00;99.90;;;;;;7281840;19;20286;-76
2024/03/11 05:13:16;;;;;;;43.07;22.87;;;11.00;99.90;;;;;;7304172;19;20636;-76
2024/03/11 05:15:49;;;;;;;40.37;22.33;;;10.90;99.90;;;;;;7283210;19;20193;-77
2024/03/11 05:18:15;;;;;;;42.70;22.77;;;10.90;99.90;;;;;;7280511;19;20185;-77
2024/03/11 05:20:42;;;;;;;40.37;22.13;;;11.00;99.90;;;;;;7281220;19;20672;-76
2024/03/11 05:23:08;;;;;;;41.43;22.20;;;10.90;99.90;;;;;;7279174;19;20184;-77
2024/03/11 05:25:34;;;;;;;38.33;20.13;;;11.00;99.90;;;;;;7280761;19;20194;-76
2024/03/11 05:28:00;;;;;;;38.57;21.77;;;11.00;99.90;;;;;;7281759;19;20190;-77
2024/03/11 05:30:29;;;;;;;38.57;20.97;;;11.00;99.90;;;;;;7280001;19;20204;-77
2024/03/11 05:32:56;;;;;;;36.57;21.37;;;10.90;99.90;;;;;;7279770;19;20193;-77
2024/03/11 05:35:21;;;;;;;37.80;21.40;;;10.90;99.90;;;;;;7279986;19;20192;-78
2024/03/11 05:37:50;;;;;;;37.93;20.23;;;10.90;99.90;;;;;;7289508;19;20203;-78
2024/03/11 05:40:18;;;;;;;35.87;20.53;;;11.00;99.90;;;;;;7302476;19;20234;-77
2024/03/11 05:42:48;;;;;;;34.63;20.40;;;10.90;99.90;;;;;;7280406;19;20189;-77
2024/03/11 05:45:14;;;;;;;36.77;20.20;;;11.00;99.90;;;;;;7279225;19;20264;-77
2024/03/11 05:47:41;;;;;;;35.90;20.50;;;11.00;99.90;;;;;;7279432;19;20306;-77
2024/03/11 05:50:09;;;;;;;37.13;19.83;;;11.00;99.90;;;;;;7280602;19;20203;-77
2024/03/11 05:52:35;;;;;;;35.37;20.03;;;11.00;99.90;;;;;;7279821;19;20219;-77
2024/03/11 05:55:11;;;;;;;34.00;18.83;;;11.00;99.90;;;;;;7279163;19;20235;-78
2024/03/11 05:57:37;;;;;;;38.13;20.13;;;11.00;99.90;;;;;;7280996;19;20207;-78
2024/03/11 06:00:09;;;;;;;34.27;19.20;;;11.10;99.90;;;;;;7282055;19;20210;-77
2024/03/11 06:02:36;;;;;;;36.23;20.47;;;11.20;99.90;;;;;;7280882;19;20198;-77
2024/03/11 06:05:02;;;;;;;35.33;20.40;;;11.10;99.90;;;;;;7279909;19;20197;-77
2024/03/11 06:07:28;;;;;;;32.33;18.73;;;11.10;99.90;;;;;;7280776;19;20217;-77
2024/03/11 06:09:54;;;;;;;33.00;18.27;;;11.10;99.90;;;;;;7278286;19;20215;-78
2024/03/11 06:12:20;;;;;;;32.87;18.00;;;11.10;99.90;;;;;;7280445;19;20299;-76
2024/03/11 06:14:47;;;;;;;30.60;18.10;;;11.10;99.90;;;;;;7307293;19;20922;-79
2024/03/11 06:17:13;;;;;;;30.80;17.83;;;11.00;99.90;;;;;;7287563;19;20185;-79
2024/03/11 06:19:39;;;;;;;30.37;17.70;;;11.00;99.90;;;;;;7285489;19;20201;-77
2024/03/11 06:22:05;;;;;;;30.33;18.17;;;10.90;99.90;;;;;;7283508;19;20201;-77
2024/03/11 06:24:32;;;;;;;30.17;17.70;;;10.90;99.90;;;;;;7286213;19;20576;-77
2024/03/11 06:26:58;;;;;;;30.80;18.50;;;11.00;99.90;;;;;;7286126;19;20216;-77
2024/03/11 06:29:26;;;;;;;32.43;18.17;;;11.00;99.90;;;;;;7281248;19;20193;-76
2024/03/11 06:31:53;;;;;;;29.27;18.00;;;11.00;99.90;;;;;;7282249;19;20681;-76
2024/03/11 06:34:21;;;;;;;30.90;18.40;;;11.00;99.90;;;;;;7284734;19;20193;-77
2024/03/11 06:36:48;;;;;;;33.43;18.97;;;10.90;99.90;;;;;;7304384;19;20639;-77
2024/03/11 06:39:24;;;;;;;34.53;19.13;;;11.10;99.90;;;;;;7308158;19;20200;-77
2024/03/11 06:41:51;;;;;;;31.37;18.73;;;11.00;99.90;;;;;;7262591;19;20181;-77
2024/03/11 06:44:17;;;;;;;33.87;18.83;;;11.00;99.90;;;;;;7305801;19;20239;-76
2024/03/11 06:46:43;;;;;;;35.87;20.53;;;11.00;99.90;;;;;;7304918;19;21036;-77
2024/03/11 06:49:09;;;;;;;33.00;19.80;;;11.10;99.90;;;;;;7286058;19;20193;-77
2024/03/11 06:51:35;;;;;;;35.43;19.70;;;11.20;99.90;;;;;;7285077;19;20177;-77
2024/03/11 06:54:01;;;;;;;30.43;19.37;;;11.10;99.90;;;;;;7287252;19;20277;-76
2024/03/11 06:56:30;;;;;;;36.07;20.53;;;11.10;99.90;;;;;;7285207;19;20196;-77
2024/03/11 06:58:58;;;;;;;34.83;20.13;;;11.20;99.90;;;;;;7286069;19;20920;-82
2024/03/11 07:01:27;;;;;;;33.87;18.60;;;11.00;99.90;;;;;;7285643;19;20223;-81
2024/03/11 07:03:54;;;;;;;32.83;19.10;;;11.10;99.90;;;;;;7285582;19;20536;-81
2024/03/11 07:06:21;;;;;;;31.53;19.03;;;11.10;99.90;;;;;;7288012;19;20188;-82
2024/03/11 07:08:46;;;;;;;32.73;19.50;;;11.10;99.90;;;;;;7307537;19;20265;-82
2024/03/11 07:11:14;;;;;;;30.63;18.67;;;11.20;99.90;;;;;;7285955;19;20294;-82
2024/03/11 07:13:42;;;;;;;36.30;22.87;;;11.30;99.90;;;;;;7284608;19;20196;-82
2024/03/11 07:16:11;;;;;;;32.03;20.57;;;11.30;99.90;;;;;;7283810;19;20178;-82
2024/03/11 07:18:37;;;;;;;32.30;19.43;;;11.30;99.90;;;;;;7286042;19;20195;-82
2024/03/11 07:21:06;;;;;;;34.73;19.50;;;11.30;99.90;;;;;;7285607;19;20194;-82
2024/03/11 07:23:33;;;;;;;29.63;18.10;;;11.30;99.90;;;;;;7285365;19;20185;-81
2024/03/11 07:26:00;;;;;;;28.90;18.60;;;11.20;99.90;;;;;;7283264;19;20209;-82
2024/03/11 07:28:28;;;;;;;31.70;18.80;;;11.20;99.90;;;;;;7285462;19;20173;-82
2024/03/11 07:30:55;;;;;;;32.97;19.17;;;11.20;99.90;;;;;;7285041;19;20191;-82
2024/03/11 07:33:22;;;;;;;31.10;18.90;;;11.20;99.90;;;;;;7285498;19;20539;-82
2024/03/11 07:35:51;;;;;;;31.00;18.93;;;11.20;99.90;;;;;;7287352;19;20214;-81
2024/03/11 07:38:18;;;;;;;28.67;18.80;;;11.20;99.90;;;;;;7306390;19;20186;-82
2024/03/11 07:40:45;;;;;;;28.50;17.63;;;11.10;99.90;;;;;;7287407;19;20274;-82
2024/03/11 07:43:11;;;;;;;32.37;18.43;;;11.00;99.90;;;;;;7285972;19;20222;-82
2024/03/11 07:45:40;;;;;;;31.70;19.00;;;11.00;99.90;;;;;;7287010;19;20206;-83
2024/03/11 07:48:09;;;;;;;26.93;17.30;;;11.10;99.90;;;;;;7286057;19;20185;-82
2024/03/11 07:50:36;;;;;;;30.27;17.77;;;11.30;99.90;;;;;;7285032;19;20186;-82
2024/03/11 07:53:01;;;;;;;27.37;17.37;;;11.40;99.90;;;;;;7285639;19;20253;-82
2024/03/11 07:55:28;;;;;;;29.37;18.00;;;11.40;99.90;;;;;;7285825;19;20194;-82
2024/03/11 07:57:55;;;;;;;29.10;17.80;;;11.40;99.90;;;;;;7285630;19;20262;-82
2024/03/11 08:00:22;;;;;;;29.70;17.77;;;11.50;99.90;;;;;;7285410;19;20197;-82
2024/03/11 08:02:48;;;;;;;29.77;17.70;;;11.60;99.90;;;;;;7290068;19;20185;-81
2024/03/11 08:05:15;;;;;;;28.67;17.47;;;11.60;99.90;;;;;;7307014;19;20205;-82
2024/03/11 08:07:45;;;;;;;26.30;17.10;;;11.60;99.90;;;;;;7285085;19;20191;-82
2024/03/11 08:10:12;;;;;;;27.13;17.50;;;11.60;99.90;;;;;;7284791;19;20542;-82
2024/03/11 08:12:42;;;;;;;28.57;17.87;;;11.70;99.90;;;;;;7285581;19;20201;-82
2024/03/11 08:15:11;;;;;;;26.50;16.60;;;11.70;99.90;;;;;;7285505;19;20246;-82
2024/03/11 08:17:37;;;;;;;29.00;17.90;;;11.70;99.90;;;;;;7285127;19;21755;-82
2024/03/11 08:20:08;;;;;;;30.23;18.43;;;11.60;99.90;;;;;;7284293;19;20193;-82
2024/03/11 08:22:37;;;;;;;29.93;18.17;;;11.60;99.90;;;;;;7285232;19;20243;-82
2024/03/11 08:25:07;;;;;;;28.40;18.07;;;11.60;99.90;;;;;;7284609;19;20199;-82
2024/03/11 08:27:33;;;;;;;31.60;18.60;;;11.70;99.90;;;;;;7281777;19;20194;-82
2024/03/11 08:29:59;;;;;;;30.60;18.80;;;11.80;99.90;;;;;;7282185;19;20259;-81
2024/03/11 08:32:26;;;;;;;30.57;18.20;;;11.90;99.90;;;;;;7282966;19;20624;-81
2024/03/11 08:34:54;;;;;;;29.80;17.70;;;12.00;99.90;;;;;;7283450;19;20235;-82
2024/03/11 08:37:23;;;;;;;30.40;18.70;;;12.00;99.90;;;;;;7283883;19;20222;-82
2024/03/11 08:39:49;;;;;;;28.27;17.93;;;12.00;99.90;;;;;;7284068;19;20563;-82
2024/03/11 08:42:15;;;;;;;30.90;18.00;;;11.80;99.90;;;;;;7303851;19;20210;-82
2024/03/11 08:44:43;;;;;;;28.53;17.83;;;11.90;99.90;;;;;;7282681;19;20205;-82
2024/03/11 08:47:11;;;;;;;26.93;17.20;;;11.80;99.90;;;;;;7283952;19;20192;-82
2024/03/11 08:49:38;;;;;;;27.37;17.00;;;11.80;99.90;;;;;;7281758;19;20192;-82
2024/03/11 08:52:06;;;;;;;27.73;17.50;;;11.90;99.90;;;;;;7282780;19;20195;-81
2024/03/11 08:54:32;;;;;;;24.73;16.07;;;11.90;99.90;;;;;;7283055;19;20194;-82
2024/03/11 08:56:59;;;;;;;24.77;16.23;;;11.90;99.90;;;;;;7281965;19;20191;-82
2024/03/11 08:59:26;;;;;;;26.43;16.83;;;12.00;99.90;;;;;;7283527;19;20210;-82
2024/03/11 09:01:57;;;;;;;25.07;16.90;;;12.10;99.90;;;;;;7282764;19;20661;-82
2024/03/11 09:04:24;;;;;;;24.20;16.13;;;12.10;99.90;;;;;;7282440;19;20202;-82
2024/03/11 09:06:50;;;;;;;24.73;15.40;;;12.20;99.90;;;;;;7282110;19;20191;-81
2024/03/11 09:09:16;;;;;;;23.73;15.67;;;12.20;99.90;;;;;;7305273;19;20197;-82
2024/03/11 09:11:42;;;;;;;24.20;16.63;;;12.20;99.90;;;;;;7282404;19;20286;-82
2024/03/11 09:14:10;;;;;;;25.57;15.10;;;12.30;99.90;;;;;;7281326;19;20901;-82
2024/03/11 09:16:38;;;;;;;22.57;15.27;;;12.30;99.90;;;;;;7282224;19;20193;-82
2024/03/11 09:19:04;;;;;;;24.10;16.03;;;12.30;99.90;;;;;;7283747;19;20653;-81
2024/03/11 09:21:31;;;;;;;24.43;16.00;;;12.20;99.90;;;;;;7283279;19;20194;-82
2024/03/11 09:23:57;;;;;;;24.57;16.10;;;12.20;99.90;;;;;;7282720;19;20194;-81
2024/03/11 09:26:23;;;;;;;25.07;16.53;;;12.10;99.90;;;;;;7281303;19;20222;-81
2024/03/11 09:28:49;;;;;;;26.20;16.73;;;12.00;99.90;;;;;;7281292;19;20193;-81
2024/03/11 09:31:15;;;;;;;27.40;17.27;;;12.00;99.90;;;;;;7303469;19;21577;-81
2024/03/11 09:33:44;;;;;;;24.87;15.37;;;12.10;99.90;;;;;;7279784;19;20672;-81
2024/03/11 09:36:10;;;;;;;26.77;16.20;;;12.10;99.90;;;;;;7280890;19;20258;-82
2024/03/11 09:38:38;;;;;;;23.83;15.80;;;12.00;99.90;;;;;;7282328;19;20195;-82
2024/03/11 09:41:14;;;;;;;24.40;15.27;;;12.00;99.90;;;;;;7279696;19;20199;-81
2024/03/11 09:43:48;;;;;;;26.63;16.03;;;12.00;99.90;;;;;;7279513;19;20652;-82
2024/03/11 09:46:22;;;;;;;27.60;16.13;;;12.10;99.90;;;;;;7283259;19;20545;-81
2024/03/11 09:48:51;;;;;;;24.17;16.13;;;12.00;99.90;;;;;;7279209;19;20193;-81
2024/03/11 09:51:24;;;;;;;28.20;16.07;;;12.00;99.90;;;;;;7311360;19;20199;-81
2024/03/11 09:53:54;;;;;;;26.47;16.13;;;11.90;99.90;;;;;;7267235;19;21114;-81
2024/03/11 09:56:20;;;;;;;24.33;16.43;;;11.90;99.90;;;;;;7287818;19;20187;-82
2024/03/11 09:58:56;;;;;;;24.67;16.53;;;11.90;99.90;;;;;;7309186;19;20207;-82
2024/03/11 10:01:30;;;;;;;24.87;16.00;;;11.90;99.90;;;;;;7265905;19;20707;-81
2024/03/11 10:04:02;;;;;;;24.10;15.67;;;11.90;99.90;;;;;;7288251;19;20189;-82
2024/03/11 10:06:30;;;;;;;26.17;16.17;;;12.10;99.90;;;;;;7290246;19;20182;-81
2024/03/11 10:08:57;;;;;;;27.73;16.27;;;12.00;99.90;;;;;;7287462;19;20180;-81
2024/03/11 10:11:28;;;;;;;23.27;15.40;;;12.10;99.90;;;;;;7286950;19;20216;-81
2024/03/11 10:13:57;;;;;;;26.77;16.13;;;12.20;99.90;;;;;;7289511;19;20187;-81
2024/03/11 10:16:26;;;;;;;26.57;15.97;;;12.30;99.90;;;;;;7286868;19;20273;-81
2024/03/11 10:19:14;;;;;;;27.03;17.13;;;12.20;99.90;;;;;;7288227;19;20182;-81
2024/03/11 10:21:43;;;;;;;23.13;15.27;;;12.30;99.90;;;;;;7288587;19;20200;-81
2024/03/11 10:24:09;;;;;;;24.00;15.13;;;12.30;99.90;;;;;;7288231;19;20521;-81
2024/03/11 10:26:42;;;;;;;25.57;15.23;;;12.20;99.90;;;;;;7289371;19;20187;-81
2024/03/11 10:29:12;;;;;;;22.37;14.77;;;12.20;99.90;;;;;;7287445;19;20212;-81
2024/03/11 10:31:41;;;;;;;22.73;15.00;;;12.30;99.90;;;;;;7287560;19;20786;-81
2024/03/11 10:34:13;;;;;;;23.97;15.50;;;12.50;99.90;;;;;;7286992;19;20719;-81
2024/03/11 10:36:49;;;;;;;20.83;13.70;;;12.60;99.90;;;;;;7287712;19;20655;-81
2024/03/11 10:41:51;;;;;;;20.33;14.07;;;12.60;99.90;;;;;;7288696;19;20721;-82
2024/03/11 10:44:29;;;;;;;21.63;13.97;;;12.60;99.90;;;;;;7287333;19;20195;-81
2024/03/11 10:47:02;;;;;;;20.17;13.53;;;12.60;99.90;;;;;;7184548;19;2004772;-81
2024/03/11 10:49:28;;;;;;;23.07;14.17;;;12.70;99.90;;;;;;7287031;19;20713;-81
2024/03/11 10:52:07;;;;;;;21.63;14.03;;;12.70;99.90;;;;;;7286891;19;20189;-81
2024/03/11 10:54:38;;;;;;;20.60;13.57;;;12.80;99.90;;;;;;7288065;19;20195;-81
2024/03/11 10:57:14;;;;;;;21.23;13.37;;;12.70;99.90;;;;;;7287443;19;20654;-82
2024/03/11 10:59:44;;;;;;;20.33;13.00;;;12.70;99.90;;;;;;7284971;19;20195;-81
2024/03/11 11:02:25;;;;;;;18.13;12.77;;;12.60;99.90;;;;;;7285586;19;20595;-82
2024/03/11 11:04:55;;;;;;;19.10;12.37;;;12.70;99.90;;;;;;7264251;19;20812;-81
2024/03/11 11:07:30;;;;;;;20.70;12.77;;;12.80;99.90;;;;;;7286130;19;20906;-81
2024/03/11 11:10:01;;;;;;;18.40;11.67;;;12.90;99.90;;;;;;7285537;19;20190;-81
2024/03/11 11:12:30;;;;;;;18.20;12.17;;;12.70;99.90;;;;;;7286419;19;20294;-81
2024/03/11 11:15:08;;;;;;;16.83;11.53;;;12.90;99.90;;;;;;7283840;19;20208;-81
2024/03/11 11:17:37;;;;;;;18.47;11.90;;;12.90;99.90;;;;;;7287211;19;20536;-81
2024/03/11 11:23:22;;;;;;;19.10;12.37;;;12.90;99.90;;;;;;7183250;19;2004298;-81
2024/03/11 11:25:49;;;;;;;18.17;12.27;;;12.90;99.90;;;;;;7285294;19;20254;-81
2024/03/11 11:28:37;;;;;;;16.60;12.13;;;12.80;99.90;;;;;;7287290;19;20307;-82
2024/03/11 11:31:15;;;;;;;18.13;12.07;;;12.80;99.90;;;;;;7183317;19;2004790;-81
2024/03/11 11:34:12;;;;;;;16.77;11.53;;;13.00;99.90;;;;;;7286464;19;20255;-81
2024/03/11 11:36:39;;;;;;;18.47;10.93;;;13.00;99.90;;;;;;7185653;19;2004619;-81
2024/03/11 11:39:14;;;;;;;19.60;12.70;;;13.00;99.90;;;;;;7286418;19;20200;-81
2024/03/11 11:41:47;;;;;;;18.33;12.40;;;13.00;99.90;;;;;;7284963;19;20686;-81
2024/03/11 11:44:28;;;;;;;19.33;12.77;;;12.90;99.90;;;;;;7284078;19;20797;-81
2024/03/11 11:47:15;;;;;;;21.03;13.50;;;12.90;99.90;;;;;;7183713;19;2004534;-81
2024/03/11 11:49:43;;;;;;;18.83;12.20;;;13.10;99.90;;;;;;7284603;19;20194;-81
2024/03/11 11:52:10;;;;;;;20.90;12.83;;;13.20;99.90;;;;;;7286277;19;20327;-81
2024/03/11 11:54:37;;;;;;;19.03;13.07;;;13.20;99.90;;;;;;7283512;19;20216;-81
2024/03/11 11:57:06;;;;;;;20.50;12.60;;;13.20;99.90;;;;;;7285457;19;20673;-81
2024/03/11 11:59:37;;;;;;;22.03;13.27;;;13.30;99.90;;;;;;7282061;19;21054;-81
2024/03/11 12:02:05;;;;;;;19.03;12.63;;;13.40;99.90;;;;;;7285445;19;20189;-81
2024/03/11 12:04:34;;;;;;;18.43;12.53;;;13.60;99.90;;;;;;7283431;19;20189;-81
2024/03/11 12:07:02;;;;;;;19.60;12.60;;;13.10;99.90;;;;;;7283359;19;20928;-81
2024/03/11 12:09:29;;;;;;;20.93;13.67;;;13.30;99.90;;;;;;7280102;19;20271;-81
2024/03/11 12:11:59;;;;;;;22.70;13.43;;;13.20;99.90;;;;;;7280703;19;20207;-82
2024/03/11 12:14:25;;;;;;;18.73;12.47;;;13.40;99.90;;;;;;7282177;19;20187;-82
2024/03/11 12:17:07;;;;;;;17.90;12.10;;;13.50;99.90;;;;;;7283162;19;20232;-81
2024/03/11 12:19:34;;;;;;;17.87;11.73;;;13.60;99.90;;;;;;7284193;19;20200;-82
2024/03/11 12:22:02;;;;;;;18.83;12.20;;;13.50;99.90;;;;;;7284270;19;20189;-82
2024/03/11 12:24:27;;;;;;;16.90;12.00;;;13.40;99.90;;;;;;7282219;19;20212;-81
2024/03/11 12:26:55;;;;;;;19.83;13.20;;;13.40;99.90;;;;;;7283766;19;20276;-80
2024/03/11 12:29:23;;;;;;;18.47;13.00;;;13.50;99.90;;;;;;7282811;19;20204;-80
2024/03/11 12:31:56;;;;;;;19.87;13.03;;;13.60;99.90;;;;;;7295966;19;20207;-80
2024/03/11 12:34:26;;;;;;;20.37;12.63;;;13.60;99.90;;;;;;7283599;19;20200;-81
2024/03/11 12:36:54;;;;;;;22.00;13.27;;;13.70;99.90;;;;;;7280774;19;20181;-81